Time;durP1;ratioP1;P1;durP2;ratioP2;P2;SDS_P1;SDS_P2;PMS_P1;PMS_P2;Temp;Humidity;BMP_temperature;BMP_pressure;BME280_temperature;BME280_humidity;BME280_pressure;Samples;Min_cycle;Max_cycle;Signal;HPM_P1;HPM_P2
2020/12/25 00:02:07;;;;;;;34.78;17.05;;;;;;;5.09;78.44;98800.00;5067275;28;20028;-74
2020/12/25 00:04:34;;;;;;;35.25;15.73;;;;;;;5.09;77.76;98794.69;5071344;28;20109;-74
2020/12/25 00:07:00;;;;;;;31.33;16.27;;;;;;;5.09;77.70;98795.50;5071845;28;20040;-73
2020/12/25 00:09:25;;;;;;;27.35;14.73;;;;;;;5.12;77.15;98794.22;5073075;28;20034;-75
2020/12/25 00:11:51;;;;;;;27.65;15.68;;;;;;;5.09;77.28;98794.69;5071876;28;20449;-76
2020/12/25 00:14:16;;;;;;;30.13;15.50;;;;;;;5.09;77.33;98808.75;5058956;28;20040;-74
2020/12/25 00:16:42;;;;;;;34.75;16.15;;;;;;;5.08;77.43;98803.72;5071162;28;20490;-74
2020/12/25 00:19:07;;;;;;;28.70;15.32;;;;;;;5.11;77.60;98796.06;5072455;28;20052;-75
2020/12/25 00:21:33;;;;;;;29.02;16.50;;;;;;;5.09;77.58;98806.09;5071902;28;20410;-78
2020/12/25 00:23:59;;;;;;;35.65;17.10;;;;;;;5.10;77.72;98801.59;5071587;28;20448;-74
2020/12/25 00:26:29;;;;;;;29.98;15.10;;;;;;;5.12;77.91;98812.75;5071753;28;20028;-74
2020/12/25 00:28:56;;;;;;;28.02;13.82;;;;;;;4.99;78.46;98791.91;5062397;28;20462;-73
2020/12/25 00:31:29;;;;;;;27.98;15.95;;;;;;;5.14;78.29;98808.03;5060267;28;20040;-72
2020/12/25 00:33:59;;;;;;;30.20;15.57;;;;;;;5.15;78.57;98812.28;5073274;28;20033;-73
2020/12/25 00:36:26;;;;;;;38.20;16.65;;;;;;;5.16;78.19;98805.13;5072606;28;20428;-73
2020/12/25 00:38:51;;;;;;;30.42;14.82;;;;;;;5.15;78.63;98800.88;5071128;28;20479;-74
2020/12/25 00:41:17;;;;;;;32.40;14.68;;;;;;;5.17;78.54;98788.19;5070289;28;20036;-74
2020/12/25 00:43:42;;;;;;;31.95;16.63;;;;;;;5.16;78.58;98795.31;5070408;28;20453;-73
2020/12/25 00:46:12;;;;;;;30.00;15.20;;;;;;;5.20;78.59;98801.75;5072455;28;20052;-73
2020/12/25 00:48:38;;;;;;;28.98;15.15;;;;;;;5.18;78.63;98784.47;5069746;28;20094;-78
2020/12/25 00:51:04;;;;;;;31.95;15.00;;;;;;;5.23;78.63;98789.84;5070711;28;20511;-76
2020/12/25 00:53:29;;;;;;;31.73;15.38;;;;;;;5.24;78.92;98794.09;5063810;28;20041;-79
2020/12/25 00:55:55;;;;;;;27.58;14.60;;;;;;;5.21;78.56;98791.94;5070690;28;20040;-76
2020/12/25 00:58:20;;;;;;;35.78;16.20;;;;;;;5.25;78.51;98793.84;5052472;28;20108;-79
2020/12/25 01:00:45;;;;;;;31.67;16.67;;;;;;;5.28;78.58;98793.38;5054793;28;20032;-75
2020/12/25 01:03:11;;;;;;;35.15;17.40;;;;;;;5.29;78.94;98796.81;5070732;28;20040;-77
2020/12/25 01:05:36;;;;;;;30.15;15.68;;;;;;;5.29;78.42;98804.75;5070291;28;20591;-75
2020/12/25 01:08:02;;;;;;;30.35;15.68;;;;;;;5.28;78.20;98801.31;5070689;28;20487;-76
2020/12/25 01:10:27;;;;;;;31.00;15.73;;;;;;;5.24;77.72;98783.50;5070843;28;20177;-77
2020/12/25 01:12:52;;;;;;;30.35;14.88;;;;;;;5.23;77.65;98787.97;5070309;28;20047;-76
2020/12/25 01:15:18;;;;;;;33.50;16.85;;;;;;;5.24;77.65;98786.16;5070761;28;20029;-75
2020/12/25 01:17:43;;;;;;;33.78;15.38;;;;;;;5.24;77.69;98786.16;5069692;28;20119;-75
2020/12/25 01:20:08;;;;;;;37.10;16.95;;;;;;;5.22;77.99;98778.41;5071575;28;20029;-76
2020/12/25 01:22:34;;;;;;;29.65;16.08;;;;;;;5.21;78.00;98773.38;5069423;28;20032;-76
2020/12/25 01:24:59;;;;;;;35.22;16.75;;;;;;;5.16;77.85;98768.81;5071703;28;20032;-75
2020/12/25 01:27:25;;;;;;;33.42;15.93;;;;;;;5.21;77.95;98783.97;5071307;28;20028;-74
2020/12/25 01:29:50;;;;;;;33.42;15.80;;;;;;;5.21;78.00;98771.53;5070152;28;20468;-75
2020/12/25 01:32:15;;;;;;;31.75;16.92;;;;;;;5.20;77.97;98772.56;5069833;28;20124;-74
2020/12/25 01:34:41;;;;;;;32.35;17.33;;;;;;;5.22;77.69;98764.38;5069659;28;20040;-75
2020/12/25 01:37:06;;;;;;;35.83;18.23;;;;;;;5.22;77.73;98778.41;5070148;28;20032;-76
2020/12/25 01:39:31;;;;;;;31.65;16.60;;;;;;;5.21;77.53;98762.75;5069728;28;20036;-77
2020/12/25 01:41:57;;;;;;;27.20;15.05;;;;;;;5.22;78.43;98756.41;5069093;28;20032;-74
2020/12/25 01:44:22;;;;;;;31.13;15.95;;;;;;;5.16;77.75;98752.91;5069805;28;20028;-76
2020/12/25 01:46:48;;;;;;;34.25;17.08;;;;;;;5.22;77.68;98759.06;5083601;28;20082;-76
2020/12/25 01:49:13;;;;;;;35.97;19.02;;;;;;;5.22;77.53;98759.06;5069613;28;20036;-74
2020/12/25 01:51:39;;;;;;;32.65;16.65;;;;;;;5.22;77.81;98759.84;5068562;28;20399;-72
2020/12/25 01:54:04;;;;;;;32.75;17.83;;;;;;;5.19;77.44;98747.13;5070837;28;20461;-73
2020/12/25 01:56:30;;;;;;;38.17;18.38;;;;;;;5.17;77.33;98745.75;5069742;28;20028;-72
2020/12/25 01:58:56;;;;;;;32.22;17.80;;;;;;;5.21;77.54;98746.84;5070938;28;20123;-73
2020/12/25 02:01:21;;;;;;;34.47;17.70;;;;;;;5.19;77.38;98743.63;5070776;28;20643;-77
2020/12/25 02:03:47;;;;;;;34.95;18.25;;;;;;;5.19;77.18;98743.63;5069213;28;20043;-78
2020/12/25 02:06:13;;;;;;;43.47;18.88;;;;;;;5.20;77.58;98745.25;5069195;28;20415;-76
2020/12/25 02:08:38;;;;;;;39.58;19.50;;;;;;;5.19;77.51;98746.28;5069109;28;20028;-75
2020/12/25 02:11:05;;;;;;;41.28;20.13;;;;;;;5.18;77.77;98744.72;5086000;28;20036;-74
2020/12/25 02:13:30;;;;;;;49.50;22.75;;;;;;;5.15;77.34;98743.38;5069600;28;20082;-72
2020/12/25 02:15:56;;;;;;;45.13;20.15;;;;;;;5.14;77.39;98736.47;5069337;28;20028;-74
2020/12/25 02:18:21;;;;;;;30.67;18.20;;;;;;;5.15;77.51;98734.59;5069275;28;20059;-74
2020/12/25 02:20:47;;;;;;;42.97;21.13;;;;;;;5.16;77.68;98741.50;5085939;28;20490;-74
2020/12/25 02:23:12;;;;;;;42.92;21.50;;;;;;;5.15;78.40;98738.06;5070324;28;20074;-76
2020/12/25 02:25:38;;;;;;;40.33;20.60;;;;;;;5.11;78.79;98719.19;5079407;28;20032;-74
2020/12/25 02:28:03;;;;;;;37.75;19.80;;;;;;;5.19;79.14;98730.38;5071272;28;20054;-74
2020/12/25 02:30:28;;;;;;;40.05;18.42;;;;;;;5.18;78.13;98723.50;5068991;28;20029;-75
2020/12/25 02:32:54;;;;;;;35.95;20.00;;;;;;;5.19;78.26;98720.59;5069094;28;20131;-77
2020/12/25 02:35:19;;;;;;;43.55;21.40;;;;;;;5.19;78.30;98725.09;5070782;28;20097;-76
2020/12/25 02:37:45;;;;;;;44.72;20.85;;;;;;;5.20;78.29;98726.69;5069942;28;20043;-74
2020/12/25 02:40:11;;;;;;;42.35;21.50;;;;;;;5.21;78.17;98728.31;5069649;28;20039;-75
2020/12/25 02:42:37;;;;;;;39.35;21.33;;;;;;;5.24;78.50;98735.78;5068794;28;20036;-74
2020/12/25 02:45:06;;;;;;;48.25;22.63;;;;;;;5.22;78.88;98736.00;5069410;28;20041;-74
2020/12/25 02:47:32;;;;;;;43.13;20.55;;;;;;;5.20;77.24;98758.50;5069067;28;20035;-76
2020/12/25 02:49:58;;;;;;;46.67;23.63;;;;;;;5.16;77.06;98750.25;5069273;28;20029;-76
2020/12/25 02:52:24;;;;;;;45.42;21.95;;;;;;;5.14;77.75;98747.06;5068384;28;20528;-75
2020/12/25 02:54:49;;;;;;;43.20;21.58;;;;;;;5.15;78.78;98739.91;5068636;28;20054;-76
2020/12/25 02:57:15;;;;;;;44.30;23.45;;;;;;;5.17;79.53;98732.50;5069301;28;20028;-75
2020/12/25 02:59:40;;;;;;;49.47;21.35;;;;;;;5.08;78.50;98719.69;5068673;28;20028;-73
2020/12/25 03:02:05;;;;;;;52.13;24.02;;;;;;;5.06;77.35;98710.38;5068406;28;20039;-72
2020/12/25 03:04:31;;;;;;;39.13;20.88;;;;;;;5.09;76.59;98725.78;5086143;28;20060;-74
2020/12/25 03:06:56;;;;;;;45.90;21.20;;;;;;;5.04;76.02;98728.38;5069880;28;20032;-74
2020/12/25 03:09:21;;;;;;;36.65;20.55;;;;;;;4.99;76.19;98730.97;5068320;28;20056;-73
2020/12/25 03:11:47;;;;;;;47.55;23.08;;;;;;;4.99;76.00;98741.56;5085962;28;20089;-74
2020/12/25 03:14:12;;;;;;;38.78;22.13;;;;;;;4.92;76.33;98737.25;5072815;28;20059;-74
2020/12/25 03:16:38;;;;;;;47.90;22.70;;;;;;;4.89;76.18;98752.84;5072242;28;20032;-74
2020/12/25 03:19:03;;;;;;;44.67;22.33;;;;;;;4.84;76.34;98742.19;5072755;28;20028;-75
2020/12/25 03:21:28;;;;;;;46.30;21.38;;;;;;;4.82;76.51;98747.69;5072813;28;20451;-74
2020/12/25 03:23:54;;;;;;;42.63;20.48;;;;;;;4.80;76.78;98747.16;5071668;28;20027;-73
2020/12/25 03:26:19;;;;;;;39.72;19.20;;;;;;;4.78;76.97;98744.75;5072621;28;20114;-74
2020/12/25 03:28:45;;;;;;;40.42;19.70;;;;;;;4.80;77.04;98752.47;5072131;28;20028;-75
2020/12/25 03:31:10;;;;;;;47.08;23.08;;;;;;;4.74;76.59;98737.56;5072542;28;20412;-74
2020/12/25 03:33:36;;;;;;;46.67;23.25;;;;;;;4.74;76.48;98743.63;5072415;28;20085;-75
2020/12/25 03:36:01;;;;;;;43.65;23.88;;;;;;;4.67;76.21;98727.13;5072027;28;20040;-73
2020/12/25 03:38:27;;;;;;;43.03;24.15;;;;;;;4.68;76.13;98735.88;5073528;28;20036;-76
2020/12/25 03:40:52;;;;;;;47.70;24.83;;;;;;;4.63;76.18;98729.47;5071920;28;20033;-74
2020/12/25 03:43:18;;;;;;;46.80;22.38;;;;;;;4.64;76.15;98735.56;5072992;28;20496;-74
2020/12/25 03:45:44;;;;;;;42.47;19.85;;;;;;;4.60;76.37;98729.97;5072399;28;20529;-75
2020/12/25 03:48:09;;;;;;;45.10;23.30;;;;;;;4.55;76.17;98726.44;5072332;28;20028;-76
2020/12/25 03:50:34;;;;;;;42.63;22.65;;;;;;;4.56;75.93;98730.69;5071703;28;20097;-76
2020/12/25 03:53:00;;;;;;;40.38;23.08;;;;;;;4.53;75.78;98739.09;5070889;28;20407;-74
2020/12/25 03:55:25;;;;;;;39.92;22.23;;;;;;;4.54;75.56;98740.72;5073134;28;20551;-74
2020/12/25 03:57:51;;;;;;;44.10;22.77;;;;;;;4.52;75.69;98753.38;5072482;28;20055;-75
2020/12/25 04:00:17;;;;;;;37.25;20.80;;;;;;;4.49;75.52;98757.31;5071907;28;20552;-74
2020/12/25 04:02:42;;;;;;;37.92;20.70;;;;;;;4.47;75.92;98754.13;5071495;28;20031;-74
2020/12/25 04:05:08;;;;;;;41.55;20.83;;;;;;;4.46;75.93;98734.78;5072138;28;20082;-73
2020/12/25 04:07:34;;;;;;;39.05;18.42;;;;;;;4.43;76.25;98729.16;5071843;28;20029;-75
2020/12/25 04:09:59;;;;;;;31.15;18.48;;;;;;;4.43;76.60;98737.94;5072410;28;20041;-75
2020/12/25 04:12:25;;;;;;;34.80;18.70;;;;;;;4.43;76.04;98745.88;5071582;28;20553;-75
2020/12/25 04:14:50;;;;;;;37.30;18.20;;;;;;;4.41;76.12;98740.00;5070349;28;20115;-76
2020/12/25 04:17:15;;;;;;;33.05;18.08;;;;;;;4.38;76.29;98737.03;5056202;28;20042;-74
2020/12/25 04:19:41;;;;;;;36.75;17.85;;;;;;;4.35;76.39;98740.19;5088049;28;20032;-73
2020/12/25 04:22:06;;;;;;;33.55;18.00;;;;;;;4.24;76.94;98724.16;5070824;28;20442;-73
2020/12/25 04:24:32;;;;;;;38.88;19.67;;;;;;;4.30;76.80;98727.69;5071298;28;20093;-73
2020/12/25 04:26:58;;;;;;;36.95;18.95;;;;;;;4.30;76.86;98741.72;5071544;28;20503;-74
2020/12/25 04:29:23;;;;;;;38.72;18.98;;;;;;;4.29;76.38;98742.75;5071880;28;20039;-73
2020/12/25 04:31:48;;;;;;;43.90;22.63;;;;;;;4.24;76.49;98740.03;5071844;28;20495;-73
2020/12/25 04:34:14;;;;;;;39.65;21.10;;;;;;;4.26;76.29;98745.06;5085759;28;20034;-73
2020/12/25 04:36:39;;;;;;;46.03;23.45;;;;;;;4.27;76.17;98744.84;5072589;28;20489;-72
2020/12/25 04:39:06;;;;;;;49.25;23.55;;;;;;;4.23;75.88;98748.22;5072069;28;20037;-72
2020/12/25 04:41:33;;;;;;;47.05;22.67;;;;;;;4.22;75.63;98738.66;5072018;28;20032;-72
2020/12/25 04:44:00;;;;;;;43.97;21.25;;;;;;;4.19;75.43;98737.31;5071215;28;20472;-73
2020/12/25 04:46:26;;;;;;;41.53;20.90;;;;;;;4.16;75.53;98738.59;5070997;28;20036;-73
2020/12/25 04:48:51;;;;;;;38.42;19.17;;;;;;;4.10;75.47;98741.38;5070879;28;20028;-73
2020/12/25 04:51:17;;;;;;;53.08;25.15;;;;;;;4.07;75.58;98739.25;5070532;28;20412;-74
2020/12/25 04:53:47;;;;;;;48.83;24.63;;;;;;;4.04;75.72;98732.59;5070765;28;20476;-74
2020/12/25 04:56:13;;;;;;;39.58;19.08;;;;;;;3.99;75.19;98735.94;5066443;28;20545;-73
2020/12/25 04:58:39;;;;;;;46.35;20.33;;;;;;;3.99;75.35;98746.53;5070926;28;20028;-73
2020/12/25 05:01:07;;;;;;;47.25;19.70;;;;;;;3.89;75.31;98721.75;5069304;28;20036;-73
2020/12/25 05:03:36;;;;;;;39.38;18.55;;;;;;;3.91;75.26;98722.31;5071999;28;20040;-73
2020/12/25 05:06:10;;;;;;;49.90;23.33;;;;;;;3.76;75.16;98717.56;5072027;28;20028;-73
2020/12/25 05:08:44;;;;;;;43.80;21.35;;;;;;;3.89;74.83;98743.69;5072254;28;20582;-76
2020/12/25 05:11:12;;;;;;;47.35;22.00;;;;;;;3.86;74.95;98736.25;5070238;28;20049;-76
2020/12/25 05:13:52;;;;;;;53.83;21.33;;;;;;;3.82;74.41;98741.22;5070298;28;20483;-75
2020/12/25 05:16:20;;;;;;;48.33;20.20;;;;;;;3.76;74.58;98736.06;5070358;28;20036;-76
2020/12/25 05:18:47;;;;;;;50.83;21.80;;;;;;;3.75;74.61;98745.88;5069768;28;20563;-75
2020/12/25 05:21:16;;;;;;;35.85;18.45;;;;;;;3.70;75.41;98737.84;5070460;28;20041;-75
2020/12/25 05:23:44;;;;;;;41.22;18.88;;;;;;;3.71;75.17;98739.47;5070616;28;20025;-73
2020/12/25 05:26:11;;;;;;;39.63;18.00;;;;;;;3.64;75.13;98731.66;5070079;28;20033;-73
2020/12/25 05:28:39;;;;;;;37.95;14.77;;;;;;;3.68;75.50;98738.06;5069988;28;20032;-75
2020/12/25 05:31:05;;;;;;;27.23;13.75;;;;;;;3.73;75.51;98745.28;5070323;28;20103;-75
2020/12/25 05:33:32;;;;;;;27.05;14.05;;;;;;;3.64;75.40;98734.31;5068979;28;20036;-73
2020/12/25 05:35:58;;;;;;;38.65;18.00;;;;;;;3.69;75.13;98739.66;5069498;28;20035;-74
2020/12/25 05:38:27;;;;;;;48.60;23.10;;;;;;;3.64;75.08;98729.00;5071315;28;20029;-74
2020/12/25 05:40:52;;;;;;;;;;;;;;;3.69;75.37;98731.75;5071646;28;20024;-74
2020/12/25 05:43:18;;;;;;;42.83;18.83;;;;;;;3.63;75.30;98726.63;5069967;28;20306;-73
2020/12/25 05:45:44;;;;;;;44.63;19.42;;;;;;;3.66;75.15;98745.44;5071026;28;20386;-75
2020/12/25 05:48:10;;;;;;;40.17;20.35;;;;;;;3.68;75.25;98758.44;5069367;28;20103;-75
2020/12/25 05:50:37;;;;;;;43.13;22.60;;;;;;;3.63;75.23;98772.34;5069886;28;20048;-75
2020/12/25 05:53:03;;;;;;;53.50;27.67;;;;;;;3.69;75.71;98779.34;5071062;28;20028;-74
2020/12/25 05:55:30;;;;;;;56.22;26.88;;;;;;;3.67;75.64;98773.50;5065999;28;20090;-75
2020/12/25 05:57:55;;;;;;;60.47;23.85;;;;;;;3.67;76.15;98768.22;5059901;28;20185;-76
2020/12/25 06:00:26;;;;;;;59.85;24.67;;;;;;;3.69;76.29;98766.13;5069806;28;20551;-76
2020/12/25 06:02:54;;;;;;;69.35;28.48;;;;;;;3.71;76.57;98762.44;5068552;28;20067;-78
2020/12/25 06:05:21;;;;;;;63.87;28.57;;;;;;;3.71;76.43;98757.97;5069456;28;20441;-77
2020/12/25 06:07:52;;;;;;;76.65;30.27;;;;;;;3.72;76.64;98766.69;5069591;28;20407;-79
2020/12/25 06:10:22;;;;;;;65.70;29.33;;;;;;;3.74;76.70;98770.69;5069792;28;20182;-79
2020/12/25 06:12:48;;;;;;;63.08;29.75;;;;;;;3.69;76.81;98763.47;5068981;28;20063;-78
2020/12/25 06:15:21;;;;;;;78.22;29.65;;;;;;;3.68;77.14;98751.28;5068570;28;20400;-76
2020/12/25 06:18:14;;;;;;;63.20;25.48;;;;;;;3.71;76.99;98762.44;5068782;28;20039;-77
2020/12/25 06:20:48;;;;;;;65.80;26.02;;;;;;;3.68;77.43;98764.50;5066915;28;20032;-79
2020/12/25 06:23:15;;;;;;;68.50;27.92;;;;;;;3.74;77.61;98775.19;5068987;28;20095;-81
2020/12/25 06:25:40;;;;;;;58.65;26.90;;;;;;;3.74;77.94;98765.41;5068584;28;20468;-77
2020/12/25 06:28:07;;;;;;;49.45;22.40;;;;;;;3.77;77.96;98764.94;5068844;28;20109;-76
2020/12/25 06:30:33;;;;;;;54.92;23.75;;;;;;;3.78;78.06;98777.09;5069386;28;20492;-77
2020/12/25 06:32:59;;;;;;;53.15;20.27;;;;;;;3.80;78.25;98763.66;5068740;28;20031;-73
2020/12/25 06:35:35;;;;;;;48.97;22.60;;;;;;;3.80;78.34;98769.75;5068871;28;20028;-74
2020/12/25 06:38:07;;;;;;;44.13;19.30;;;;;;;3.88;78.38;98780.97;5049174;28;20100;-72
2020/12/25 06:40:33;;;;;;;50.03;21.17;;;;;;;3.87;78.46;98772.25;5054569;28;20081;-73
2020/12/25 06:42:58;;;;;;;42.35;20.15;;;;;;;3.91;78.00;98785.81;5070041;28;20028;-73
2020/12/25 06:45:31;;;;;;;58.85;27.83;;;;;;;3.94;78.46;98786.13;5069659;28;20028;-73
2020/12/25 06:48:18;;;;;;;48.42;23.98;;;;;;;3.99;78.40;98788.03;5072956;28;20242;-73
2020/12/25 06:50:54;;;;;;;66.97;29.25;;;;;;;4.00;78.62;98771.94;5072998;28;20024;-73
2020/12/25 06:53:38;;;;;;;41.40;20.50;;;;;;;4.04;78.46;98769.63;5074396;28;20032;-73
2020/12/25 06:56:10;;;;;;;42.38;18.77;;;;;;;4.03;78.63;98765.38;5074021;28;20024;-74
2020/12/25 06:58:37;;;;;;;43.28;19.30;;;;;;;3.96;78.54;98749.66;5074607;28;20123;-74
2020/12/25 07:01:03;;;;;;;56.92;21.73;;;;;;;3.98;78.88;98765.31;5072768;28;20527;-74
2020/12/25 07:03:33;;;;;;;33.42;15.48;;;;;;;3.93;78.77;98768.66;5074634;28;20028;-73
2020/12/25 07:06:00;;;;;;;33.97;15.50;;;;;;;3.91;78.82;98767.28;5072287;28;20016;-76
2020/12/25 07:08:27;;;;;;;45.55;19.35;;;;;;;3.87;79.85;98764.31;5073506;28;20387;-74
2020/12/25 07:11:04;;;;;;;42.38;22.85;;;;;;;3.91;80.16;98768.09;5072531;28;20060;-73
2020/12/25 07:13:31;;;;;;;53.05;23.30;;;;;;;3.96;80.16;98772.66;5072867;28;20454;-76
2020/12/25 07:15:57;;;;;;;52.90;25.25;;;;;;;3.97;80.47;98768.97;5072414;28;20048;-73
2020/12/25 07:18:23;;;;;;;58.88;23.10;;;;;;;4.07;80.11;98779.72;5072155;28;20120;-72
2020/12/25 07:20:49;;;;;;;43.00;20.45;;;;;;;4.16;80.32;98774.84;5073958;28;20036;-78
2020/12/25 07:23:15;;;;;;;44.70;19.05;;;;;;;4.17;80.22;98760.56;5072231;28;20024;-74
2020/12/25 07:25:41;;;;;;;38.15;16.50;;;;;;;4.26;80.33;98774.19;5072397;28;20491;-73
2020/12/25 07:28:07;;;;;;;35.75;18.00;;;;;;;4.34;80.46;98784.38;5072233;28;20035;-79
2020/12/25 07:30:33;;;;;;;40.70;19.63;;;;;;;4.42;80.40;98783.97;5072769;28;20178;-76
2020/12/25 07:32:58;;;;;;;57.28;25.08;;;;;;;4.49;80.65;98789.09;5058978;28;20543;-75
2020/12/25 07:35:24;;;;;;;49.45;23.92;;;;;;;4.47;80.55;98781.41;5056388;28;20499;-75
2020/12/25 07:37:55;;;;;;;52.95;25.23;;;;;;;4.64;80.22;98797.28;5071681;28;20020;-77
2020/12/25 07:40:21;;;;;;;68.70;27.88;;;;;;;4.68;80.09;98786.22;5071569;28;20027;-74
2020/12/25 07:42:47;;;;;;;54.42;25.55;;;;;;;4.70;80.33;98779.63;5072140;28;20013;-75
2020/12/25 07:45:12;;;;;;;44.15;20.08;;;;;;;4.70;79.67;98789.41;5071768;28;20462;-75
2020/12/25 07:47:40;;;;;;;46.22;19.13;;;;;;;4.75;80.30;98784.19;5073539;28;20028;-75
2020/12/25 07:50:06;;;;;;;36.00;17.17;;;;;;;4.80;80.48;98794.84;5072011;28;20031;-76
2020/12/25 07:52:31;;;;;;;27.08;13.48;;;;;;;4.82;79.75;98800.69;5071333;28;20036;-75
2020/12/25 07:54:57;;;;;;;17.30;10.80;;;;;;;4.74;79.33;98793.19;5071525;28;20044;-74
2020/12/25 07:57:23;;;;;;;25.33;11.25;;;;;;;4.75;79.47;98803.53;5070086;28;20511;-74
2020/12/25 07:59:49;;;;;;;23.88;12.80;;;;;;;4.72;80.10;98808.50;5063590;28;20095;-75
2020/12/25 08:02:17;;;;;;;28.65;13.13;;;;;;;4.76;80.19;98801.66;5071984;28;20032;-74
2020/12/25 08:04:46;;;;;;;22.27;10.50;;;;;;;4.76;79.89;98807.78;5071358;28;20052;-73
2020/12/25 08:07:11;;;;;;;27.15;11.45;;;;;;;4.77;80.78;98805.94;5072289;28;20671;-72
2020/12/25 08:09:38;;;;;;;23.58;12.77;;;;;;;4.81;80.75;98799.91;5073360;28;20032;-72
2020/12/25 08:12:12;;;;;;;32.03;15.77;;;;;;;4.90;81.12;98812.75;5073412;28;20062;-72
2020/12/25 08:14:40;;;;;;;32.90;15.48;;;;;;;4.95;81.19;98810.94;5072975;28;20032;-72
2020/12/25 08:17:06;;;;;;;40.88;20.35;;;;;;;5.04;81.00;98805.22;5071457;28;20029;-72
2020/12/25 08:19:35;;;;;;;53.17;21.63;;;;;;;5.10;81.12;98806.91;5072705;28;20101;-72
2020/12/25 08:22:05;;;;;;;47.67;19.92;;;;;;;5.18;80.75;98806.47;5072411;28;20530;-74
2020/12/25 08:24:30;;;;;;;42.38;19.27;;;;;;;5.17;80.71;98796.13;5072777;28;20121;-74
2020/12/25 08:27:01;;;;;;;51.50;20.77;;;;;;;5.28;80.58;98803.16;5071115;28;20182;-70
2020/12/25 08:29:31;;;;;;;55.80;24.75;;;;;;;5.29;80.97;98805.53;5059854;28;20435;-70
2020/12/25 08:32:09;;;;;;;68.18;26.88;;;;;;;5.39;80.73;98810.16;5071401;28;20052;-74
2020/12/25 08:34:36;;;;;;;61.67;29.00;;;;;;;5.40;81.13;98806.47;5072307;28;20052;-74
2020/12/25 08:37:09;;;;;;;66.82;27.95;;;;;;;5.50;80.67;98811.09;5070444;28;20454;-71
2020/12/25 08:39:35;;;;;;;53.53;24.17;;;;;;;5.56;81.16;98809.31;5061336;28;20085;-70
2020/12/25 08:42:00;;;;;;;50.90;25.38;;;;;;;5.66;80.53;98809.41;5065577;28;20035;-72
2020/12/25 08:44:27;;;;;;;41.88;22.20;;;;;;;5.70;80.80;98805.22;5065430;28;20028;-70
2020/12/25 08:47:08;;;;;;;39.60;20.48;;;;;;;5.82;80.62;98801.59;5069226;28;20089;-72
2020/12/25 08:49:34;;;;;;;58.08;25.58;;;;;;;5.88;81.20;98790.00;5064760;28;20048;-70
2020/12/25 08:51:59;;;;;;;47.92;21.33;;;;;;;5.96;80.91;98783.41;5067381;28;20032;-72
2020/12/25 08:54:26;;;;;;;42.88;21.15;;;;;;;5.98;80.90;98784.78;5068709;28;20036;-73
2020/12/25 08:56:52;;;;;;;58.95;22.70;;;;;;;6.09;81.32;98781.19;5069564;28;20442;-72
2020/12/25 08:59:20;;;;;;;41.53;18.73;;;;;;;6.27;81.32;98781.84;5067399;28;20036;-72
2020/12/25 09:01:47;;;;;;;43.72;16.35;;;;;;;6.41;81.50;98783.03;5068459;28;20032;-72
2020/12/25 09:04:18;;;;;;;33.30;17.55;;;;;;;6.53;81.03;98774.88;5068850;28;20029;-71
2020/12/25 09:06:45;;;;;;;31.00;14.00;;;;;;;6.62;81.14;98769.88;5068088;28;20089;-71
2020/12/25 09:09:11;;;;;;;35.45;16.60;;;;;;;6.67;80.52;98767.25;5068437;28;20036;-71
2020/12/25 09:11:36;;;;;;;27.13;14.35;;;;;;;6.85;80.52;98773.22;5069089;28;20050;-71
2020/12/25 09:14:02;;;;;;;35.25;15.00;;;;;;;6.94;80.85;98773.53;5069463;28;20029;-71
2020/12/25 09:16:27;;;;;;;26.42;14.30;;;;;;;6.92;81.63;98759.69;5069965;28;20097;-71
2020/12/25 09:18:53;;;;;;;24.95;11.95;;;;;;;7.02;81.26;98773.03;5070388;28;20154;-71
2020/12/25 09:21:18;;;;;;;19.52;10.07;;;;;;;6.97;81.15;98759.69;5070961;28;20028;-71
2020/12/25 09:23:44;;;;;;;15.77;9.07;;;;;;;6.86;80.44;98762.31;5071511;28;20081;-71
2020/12/25 09:26:11;;;;;;;15.48;8.75;;;;;;;6.78;79.80;98760.13;5070995;28;20017;-71
2020/12/25 09:28:37;;;;;;;22.25;11.40;;;;;;;6.69;80.90;98759.84;5071125;28;20021;-71
2020/12/25 09:31:05;;;;;;;18.92;9.98;;;;;;;6.61;80.63;98755.00;5070410;28;20453;-71
2020/12/25 09:33:30;;;;;;;22.67;10.43;;;;;;;6.51;80.86;98763.69;5069765;28;20028;-71
2020/12/25 09:35:56;;;;;;;21.95;12.25;;;;;;;6.51;81.37;98755.72;5071314;28;20479;-72
2020/12/25 09:38:21;;;;;;;28.08;11.25;;;;;;;6.44;80.49;98747.19;5070728;28;20499;-71
2020/12/25 09:40:51;;;;;;;33.03;12.80;;;;;;;6.37;80.84;98749.25;5071587;28;20027;-71
2020/12/25 09:43:17;;;;;;;33.42;15.00;;;;;;;6.23;80.63;98741.72;5071547;28;20040;-71
2020/12/25 09:45:43;;;;;;;31.63;12.43;;;;;;;6.22;80.56;98753.41;5070128;28;20442;-71
2020/12/25 09:48:08;;;;;;;23.08;12.20;;;;;;;6.20;81.56;98750.22;5086801;28;20063;-71
2020/12/25 09:50:34;;;;;;;31.33;14.75;;;;;;;6.08;81.76;98733.66;5086795;28;20407;-71
2020/12/25 09:52:59;;;;;;;27.48;12.68;;;;;;;6.14;81.36;98740.63;5069874;28;20178;-72
2020/12/25 09:55:26;;;;;;;35.20;14.88;;;;;;;6.14;81.56;98737.16;5069773;28;20408;-71
2020/12/25 09:57:51;;;;;;;26.27;14.45;;;;;;;6.18;81.97;98732.94;5071468;28;20058;-71
2020/12/25 10:00:17;;;;;;;36.97;13.93;;;;;;;6.24;81.94;98740.69;5071007;28;20031;-71
2020/12/25 10:02:42;;;;;;;35.33;14.75;;;;;;;6.22;82.17;98734.03;5071121;28;20499;-72
2020/12/25 10:05:10;;;;;;;25.13;14.00;;;;;;;6.27;81.79;98727.97;5071144;28;20059;-72
2020/12/25 10:07:36;;;;;;;34.05;13.35;;;;;;;6.19;81.81;98706.13;5071108;28;20032;-72
2020/12/25 10:10:06;;;;;;;34.45;14.95;;;;;;;6.36;81.46;98729.06;5070882;28;20086;-72
2020/12/25 10:12:31;;;;;;;35.33;15.30;;;;;;;6.36;82.09;98727.22;5069832;28;20419;-71
2020/12/25 10:14:57;;;;;;;39.63;15.85;;;;;;;6.34;82.90;98715.25;5071112;28;20033;-71
2020/12/25 10:17:22;;;;;;;30.85;14.90;;;;;;;6.32;82.45;98701.44;5069512;28;20036;-71
2020/12/25 10:19:48;;;;;;;30.92;13.95;;;;;;;6.55;82.31;98717.00;5069315;28;20105;-71
2020/12/25 10:22:13;;;;;;;29.73;14.02;;;;;;;6.60;82.06;98707.44;5069420;28;20032;-72
2020/12/25 10:24:39;;;;;;;35.67;16.38;;;;;;;6.72;82.52;98702.72;5070703;28;20503;-72
2020/12/25 10:27:04;;;;;;;29.20;13.07;;;;;;;6.82;82.57;98702.78;5070747;28;20031;-72
2020/12/25 10:29:30;;;;;;;30.75;14.20;;;;;;;6.92;81.93;98685.25;5071023;28;20111;-72
2020/12/25 10:31:58;;;;;;;28.20;14.25;;;;;;;7.08;82.05;98692.22;5069673;28;20028;-72
2020/12/25 10:34:23;;;;;;;26.05;14.77;;;;;;;7.18;81.66;98680.81;5069174;28;20391;-71
2020/12/25 10:36:49;;;;;;;34.95;15.90;;;;;;;7.35;81.58;98685.91;5071115;28;20025;-71
2020/12/25 10:39:15;;;;;;;32.10;15.07;;;;;;;7.42;81.44;98672.34;5070559;28;20029;-71
2020/12/25 10:41:41;;;;;;;33.95;15.10;;;;;;;7.61;81.20;98697.38;5070810;28;20035;-71
2020/12/25 10:44:07;;;;;;;30.77;15.05;;;;;;;7.72;81.17;98684.88;5069252;28;20037;-71
2020/12/25 10:46:33;;;;;;;30.90;15.55;;;;;;;7.86;80.95;98682.50;5069334;28;20498;-72
2020/12/25 10:48:58;;;;;;;31.88;16.40;;;;;;;7.87;79.70;98668.09;5069337;28;20037;-71
2020/12/25 10:51:24;;;;;;;33.78;14.93;;;;;;;7.97;79.96;98672.63;5070495;28;20115;-71
2020/12/25 10:53:50;;;;;;;33.17;16.30;;;;;;;7.98;79.96;98671.56;5069381;28;20086;-71
2020/12/25 10:56:31;;;;;;;31.60;14.40;;;;;;;7.95;79.35;98669.44;5069096;28;20182;-72
2020/12/25 10:58:56;;;;;;;32.30;15.93;;;;;;;7.95;79.47;98661.44;5069384;28;20025;-71
2020/12/25 11:01:24;;;;;;;31.52;16.20;;;;;;;7.80;79.54;98649.75;5069032;28;20039;-71
2020/12/25 11:03:49;;;;;;;33.20;15.70;;;;;;;7.80;79.26;98656.91;5069261;28;20029;-71
2020/12/25 11:06:15;;;;;;;32.03;15.15;;;;;;;7.79;79.63;98653.47;5070258;28;20035;-71
2020/12/25 11:08:40;;;;;;;37.35;17.55;;;;;;;7.73;79.35;98651.09;5069199;28;20043;-71
2020/12/25 11:11:06;;;;;;;31.42;16.05;;;;;;;7.72;79.96;98642.28;5068912;28;20027;-72
2020/12/25 11:13:35;;;;;;;28.67;15.05;;;;;;;7.70;79.36;98631.09;5070539;28;20111;-71
2020/12/25 11:16:00;;;;;;;35.53;16.70;;;;;;;7.71;80.17;98629.25;5068964;28;20056;-71
2020/12/25 11:18:25;;;;;;;34.15;16.10;;;;;;;7.80;80.60;98633.75;5069887;28;20116;-71
2020/12/25 11:20:51;;;;;;;39.50;16.60;;;;;;;7.82;80.51;98621.00;5069003;28;20020;-71
2020/12/25 11:23:16;;;;;;;37.30;17.25;;;;;;;8.00;80.28;98624.16;5070226;28;20031;-71
2020/12/25 11:25:42;;;;;;;27.88;14.65;;;;;;;8.01;80.44;98618.56;5070451;28;20443;-71